Time;durP1;ratioP1;P1;durP2;ratioP2;P2;SDS_P1;SDS_P2;PMS_P1;PMS_P2;Temp;Humidity;BMP_temperature;BMP_pressure;BME280_temperature;BME280_humidity;BME280_pressure;Samples;Min_cycle;Max_cycle;Signal;HPM_P1;HPM_P2
2022/08/03 00:01:40;;;;;;;2.70;0.95;;;;;;;23.48;41.71;98575.06;5092766;28;20090;-48
2022/08/03 00:04:08;;;;;;;2.30;0.90;;;;;;;23.30;42.01;98578.47;5092754;28;20024;-48
2022/08/03 00:06:33;;;;;;;1.40;1.15;;;;;;;23.17;42.62;98579.97;5092739;28;20099;-48
2022/08/03 00:08:59;;;;;;;6.43;1.00;;;;;;;23.07;43.02;98578.22;5074444;28;20556;-48
2022/08/03 00:11:25;;;;;;;3.72;1.10;;;;;;;23.01;42.82;98576.66;5074265;28;20024;-47
2022/08/03 00:13:51;;;;;;;2.75;1.08;;;;;;;22.98;42.74;98582.56;5092661;28;20034;-46
2022/08/03 00:16:17;;;;;;;3.45;1.08;;;;;;;22.97;43.00;98585.53;5092520;28;20095;-46
2022/08/03 00:18:43;;;;;;;1.30;0.90;;;;;;;22.92;42.95;98576.47;5074227;28;20473;-46
2022/08/03 00:21:09;;;;;;;3.38;1.20;;;;;;;23.00;42.93;98575.06;5092468;28;20024;-46
2022/08/03 00:23:35;;;;;;;2.83;1.40;;;;;;;22.99;43.09;98581.47;5074287;28;20103;-47
2022/08/03 00:26:01;;;;;;;3.83;1.17;;;;;;;23.14;43.18;98575.22;5092351;28;20020;-47
2022/08/03 00:28:26;;;;;;;6.38;1.77;;;;;;;23.31;42.68;98582.75;5091995;28;20071;-48
2022/08/03 00:30:54;;;;;;;5.13;1.30;;;;;;;23.44;42.60;98578.56;5092226;28;20024;-49
2022/08/03 00:33:21;;;;;;;5.20;1.38;;;;;;;23.50;42.31;98580.09;5092191;28;20052;-47
2022/08/03 00:35:46;;;;;;;2.10;1.00;;;;;;;23.43;42.13;98579.69;5092216;28;20093;-47
2022/08/03 00:38:12;;;;;;;3.08;1.35;;;;;;;23.18;42.54;98573.56;5092196;28;20056;-47
2022/08/03 00:40:38;;;;;;;3.80;1.60;;;;;;;23.08;42.95;98574.47;5092067;28;20074;-47
2022/08/03 00:43:06;;;;;;;4.55;1.15;;;;;;;23.23;42.44;98578.84;5092092;28;20103;-48
2022/08/03 00:45:34;;;;;;;2.25;1.20;;;;;;;23.40;42.16;98574.88;5092315;28;20447;-48
2022/08/03 00:48:02;;;;;;;7.63;1.20;;;;;;;23.56;42.20;98578.94;5092115;28;20016;-48
2022/08/03 00:50:30;;;;;;;2.38;1.10;;;;;;;23.57;41.58;98575.19;5073781;28;20024;-48
2022/08/03 00:52:58;;;;;;;5.72;1.25;;;;;;;23.44;42.26;98570.53;5073888;28;20031;-48
2022/08/03 00:55:25;;;;;;;1.73;1.10;;;;;;;23.57;41.71;98577.09;5091946;28;20050;-48
2022/08/03 00:57:51;;;;;;;2.92;1.10;;;;;;;23.55;41.54;98572.00;5091960;28;20024;-48
2022/08/03 01:00:20;;;;;;;3.05;0.93;;;;;;;23.41;41.78;98573.81;5073748;28;20040;-48
2022/08/03 01:02:46;;;;;;;9.10;1.38;;;;;;;23.23;42.27;98573.47;5073744;28;20032;-48
2022/08/03 01:05:12;;;;;;;2.10;1.30;;;;;;;23.09;42.42;98575.25;5091796;28;20032;-48
2022/08/03 01:08:00;;;;;;;4.05;1.10;;;;;;;22.91;42.97;98582.09;5091846;28;20028;-48
2022/08/03 01:11:11;;;;;;;6.30;1.55;;;;;;;22.79;43.35;98571.00;5073601;28;20063;-47
2022/08/03 01:13:57;;;;;;;2.60;1.15;;;;;;;22.68;43.30;98573.78;5073728;28;20035;-48
2022/08/03 01:16:29;;;;;;;1.63;0.90;;;;;;;22.62;43.66;98574.13;5091768;28;20028;-48
2022/08/03 01:19:18;;;;;;;1.83;0.93;;;;;;;22.56;44.32;98562.66;5057036;28;20028;-47
2022/08/03 01:22:33;;;;;;;1.40;1.00;;;;;;;22.46;44.48;98566.22;5073587;28;20017;-47
2022/08/03 01:25:32;;;;;;;1.73;1.10;;;;;;;22.52;43.99;98570.44;5073605;28;20111;-48
2022/08/03 01:28:09;;;;;;;4.03;1.20;;;;;;;22.62;44.22;98572.22;5091521;28;20044;-48
2022/08/03 01:30:39;;;;;;;2.90;2.15;;;;;;;22.72;44.06;98572.13;5091639;28;20020;-48
2022/08/03 01:33:27;;;;;;;2.35;1.10;;;;;;;22.61;44.21;98561.81;5091681;28;20474;-48
2022/08/03 01:36:01;;;;;;;4.57;1.23;;;;;;;22.49;44.15;98564.84;5073474;28;20090;-47
2022/08/03 01:38:28;;;;;;;3.92;1.85;;;;;;;22.32;44.80;98571.41;5073390;28;20028;-48
2022/08/03 01:40:56;;;;;;;2.13;0.93;;;;;;;22.25;45.12;98564.78;5075877;28;20020;-48
2022/08/03 01:43:29;;;;;;;4.22;1.92;;;;;;;22.14;45.06;98564.06;5095500;28;20024;-48
2022/08/03 01:45:56;;;;;;;2.25;1.20;;;;;;;22.05;45.79;98565.72;5095463;28;20552;-48
2022/08/03 01:48:23;;;;;;;6.88;1.20;;;;;;;21.99;45.95;98572.16;5095401;28;20020;-47
2022/08/03 01:50:50;;;;;;;2.05;1.20;;;;;;;22.16;45.33;98567.25;5095295;28;20017;-47
2022/08/03 01:53:18;;;;;;;8.75;2.10;;;;;;;22.41;45.20;98578.84;5077052;28;20481;-48
2022/08/03 01:55:47;;;;;;;5.53;1.30;;;;;;;22.65;44.67;98566.31;5077034;28;20448;-48
2022/08/03 01:58:17;;;;;;;7.65;1.88;;;;;;;22.78;44.28;98564.03;5076897;28;20123;-48
2022/08/03 02:00:45;;;;;;;3.03;1.50;;;;;;;22.92;43.87;98563.09;5095435;28;20491;-48
2022/08/03 02:03:12;;;;;;;2.60;1.05;;;;;;;22.92;43.87;98573.81;5077486;28;20495;-48
2022/08/03 02:05:39;;;;;;;3.38;1.55;;;;;;;22.77;43.99;98567.81;5076852;28;20020;-48
2022/08/03 02:08:09;;;;;;;2.00;1.17;;;;;;;22.80;44.04;98561.88;5076810;28;20028;-48
2022/08/03 02:10:38;;;;;;;7.07;1.40;;;;;;;22.88;45.11;98562.06;5076652;28;20020;-48
2022/08/03 02:13:06;;;;;;;4.53;1.38;;;;;;;22.89;47.75;98557.50;5094898;28;20444;-48
2022/08/03 02:15:34;;;;;;;3.22;1.30;;;;;;;22.46;49.22;98558.19;5076715;28;20034;-48
2022/08/03 02:18:02;;;;;;;2.63;1.13;;;;;;;21.71;49.91;98559.25;5094890;28;20020;-48
2022/08/03 02:20:31;;;;;;;5.70;1.60;;;;;;;21.09;51.95;98565.94;5094772;28;20103;-47
2022/08/03 02:22:58;;;;;;;5.25;1.50;;;;;;;20.74;53.32;98564.94;5094725;28;20528;-48
2022/08/03 02:25:23;;;;;;;3.17;1.50;;;;;;;20.51;53.79;98567.06;5076735;28;20056;-48
2022/08/03 02:27:57;;;;;;;7.97;1.40;;;;;;;20.47;54.81;98570.56;5093991;28;20144;-47
2022/08/03 02:30:37;;;;;;;2.85;1.50;;;;;;;20.39;55.44;98574.56;5075745;28;20032;-48
2022/08/03 02:33:06;;;;;;;5.80;2.25;;;;;;;20.34;54.91;98575.38;5093636;28;20178;-47
2022/08/03 02:35:34;;;;;;;5.88;5.38;;;;;;;20.31;55.27;98567.09;5093345;28;20394;-47
2022/08/03 02:38:04;;;;;;;2.78;1.67;;;;;;;20.44;54.86;98571.06;5093331;28;20052;-48
2022/08/03 02:40:32;;;;;;;2.58;1.38;;;;;;;20.49;54.31;98566.53;5093243;28;20452;-47
2022/08/03 02:43:10;;;;;;;6.35;1.45;;;;;;;20.48;53.02;98574.81;5075033;28;20066;-48
2022/08/03 02:45:43;;;;;;;3.25;1.10;;;;;;;20.46;52.71;98571.59;5075072;28;20020;-48
2022/08/03 02:48:10;;;;;;;3.92;1.20;;;;;;;20.46;52.56;98574.28;5093192;28;20157;-47
2022/08/03 02:50:37;;;;;;;5.32;1.10;;;;;;;20.51;52.54;98561.75;5074514;28;20025;-48
2022/08/03 02:53:04;;;;;;;1.95;1.30;;;;;;;20.67;51.97;98564.44;5057360;28;20476;-48
2022/08/03 02:55:34;;;;;;;6.38;1.23;;;;;;;20.76;51.08;98560.13;5074878;28;20027;-47
2022/08/03 02:58:01;;;;;;;1.98;0.95;;;;;;;20.81;50.97;98565.47;5074867;28;20081;-48
2022/08/03 03:00:28;;;;;;;2.38;1.20;;;;;;;20.87;50.32;98564.38;5074724;28;20415;-48
2022/08/03 03:03:00;;;;;;;4.57;1.63;;;;;;;20.90;50.23;98563.81;5074701;28;20031;-48
2022/08/03 03:05:27;;;;;;;3.30;1.15;;;;;;;20.94;49.85;98566.75;5092830;28;20020;-48
2022/08/03 03:07:54;;;;;;;2.70;1.05;;;;;;;20.97;49.30;98562.75;5092805;28;20028;-48
2022/08/03 03:10:21;;;;;;;5.60;1.35;;;;;;;21.01;49.24;98564.63;5093046;28;20545;-47
2022/08/03 03:12:50;;;;;;;4.50;1.30;;;;;;;21.18;49.17;98563.50;5092723;28;20020;-47
2022/08/03 03:15:17;;;;;;;5.38;1.55;;;;;;;21.40;48.80;98558.59;5092632;28;20030;-48
2022/08/03 03:17:43;;;;;;;4.60;1.33;;;;;;;21.67;48.42;98563.56;5092665;28;20032;-48
2022/08/03 03:20:11;;;;;;;5.05;1.30;;;;;;;21.83;48.20;98558.09;5092682;28;20394;-47
2022/08/03 03:22:37;;;;;;;4.82;1.30;;;;;;;22.03;47.45;98560.63;5092643;28;20085;-48
2022/08/03 03:25:05;;;;;;;4.70;1.50;;;;;;;22.17;47.21;98565.38;5074369;28;20051;-48
2022/08/03 03:27:32;;;;;;;3.38;1.17;;;;;;;22.25;46.76;98559.44;5022958;28;1465305;-48
2022/08/03 03:29:58;;;;;;;4.55;1.48;;;;;;;22.17;46.03;98560.00;5093460;28;20040;-48
2022/08/03 03:32:27;;;;;;;4.45;1.30;;;;;;;21.90;46.62;98563.97;5075135;28;20524;-48
2022/08/03 03:34:54;;;;;;;5.28;1.83;;;;;;;21.69;47.03;98552.59;5075100;28;20499;-48
2022/08/03 03:37:20;;;;;;;1.67;1.23;;;;;;;21.53;47.49;98563.38;5075131;28;20021;-48
2022/08/03 03:39:46;;;;;;;4.57;1.52;;;;;;;21.49;47.82;98564.19;5075068;28;20035;-47
2022/08/03 03:42:11;;;;;;;5.00;1.50;;;;;;;21.74;47.88;98564.03;5074959;28;20016;-48
2022/08/03 03:44:37;;;;;;;22.35;2.13;;;;;;;22.08;47.47;98557.16;5074946;28;20031;-48
2022/08/03 03:47:03;;;;;;;41.50;3.08;;;;;;;22.30;46.69;98556.75;5074877;28;20115;-48
2022/08/03 03:49:30;;;;;;;38.65;2.92;;;;;;;22.29;46.64;98557.81;5093078;28;20052;-48
2022/08/03 03:51:56;;;;;;;24.90;2.25;;;;;;;22.08;46.93;98552.59;5092906;28;20039;-48
2022/08/03 03:54:22;;;;;;;27.13;3.20;;;;;;;22.00;47.37;98563.09;5093050;28;20481;-47
2022/08/03 03:56:48;;;;;;;35.38;3.65;;;;;;;22.06;47.31;98557.44;5092867;28;20024;-49
2022/08/03 03:59:13;;;;;;;63.92;4.53;;;;;;;22.17;46.86;98554.66;5074619;28;20035;-48
2022/08/03 04:01:39;;;;;;;12.75;2.45;;;;;;;22.27;46.23;98558.06;5092825;28;20027;-47
2022/08/03 04:12:25;;;;;;;16.20;1.88;;;;;;;21.71;46.70;98575.28;5092625;28;20514;-47
2022/08/03 04:14:56;;;;;;;7.85;2.13;;;;;;;21.58;47.00;98573.22;5092557;28;20024;-48
2022/08/03 04:17:25;;;;;;;26.55;2.55;;;;;;;21.45;47.78;98584.47;5092617;28;20466;-48
2022/08/03 04:19:53;;;;;;;11.95;1.88;;;;;;;21.60;47.66;98580.97;5092433;28;20031;-48
2022/08/03 04:22:23;;;;;;;20.15;2.08;;;;;;;21.67;47.28;98584.13;5092404;28;20024;-48
2022/08/03 04:25:01;;;;;;;20.35;2.08;;;;;;;21.73;47.29;98585.69;5092417;28;20020;-48
2022/08/03 04:27:34;;;;;;;43.05;3.03;;;;;;;21.75;47.59;98586.19;5092153;28;20047;-48
2022/08/03 04:30:03;;;;;;;13.32;2.05;;;;;;;21.81;47.19;98595.81;5057482;28;20410;-49
2022/08/03 04:32:30;;;;;;;13.98;2.42;;;;;;;21.78;47.25;98598.22;5092485;28;20062;-47
2022/08/03 04:34:56;;;;;;;148.85;12.65;;;;;;;21.64;47.74;98598.81;5074030;28;20024;-49
2022/08/03 04:37:42;;;;;;;11.93;2.03;;;;;;;21.75;48.07;98599.56;5074037;28;20111;-48
2022/08/03 04:40:15;;;;;;;11.18;1.90;;;;;;;21.96;47.63;98596.78;5092191;28;20107;-48
2022/08/03 04:42:42;;;;;;;7.88;1.95;;;;;;;22.18;46.89;98593.72;5092208;28;20024;-48
2022/08/03 04:45:11;;;;;;;6.00;1.70;;;;;;;22.36;46.89;98586.91;5092119;28;20024;-48
2022/08/03 04:47:38;;;;;;;9.77;2.08;;;;;;;22.67;46.07;98598.13;5092094;28;20013;-48
2022/08/03 04:50:05;;;;;;;4.40;1.40;;;;;;;22.73;44.90;98602.34;5073838;28;20031;-48
2022/08/03 04:52:31;;;;;;;8.32;1.20;;;;;;;22.54;45.27;98602.28;5091950;28;20020;-48
2022/08/03 04:54:56;;;;;;;9.07;1.40;;;;;;;22.81;45.04;98600.94;5073863;28;20549;-48
2022/08/03 04:57:22;;;;;;;6.85;1.48;;;;;;;23.48;43.91;98601.03;5091946;28;20020;-47
2022/08/03 04:59:51;;;;;;;2.65;1.10;;;;;;;24.06;42.55;98605.38;5091863;28;20032;-48
2022/08/03 05:02:17;;;;;;;3.53;1.60;;;;;;;24.63;41.45;98608.78;5091808;28;20111;-48
2022/08/03 05:04:45;;;;;;;3.65;1.27;;;;;;;25.08;40.49;98611.72;5073719;28;20524;-48
2022/08/03 05:07:12;;;;;;;12.15;1.77;;;;;;;25.38;40.05;98619.53;5073675;28;20386;-48
2022/08/03 05:09:38;;;;;;;4.32;1.33;;;;;;;25.82;39.22;98616.16;5073758;28;20031;-46
2022/08/03 05:12:05;;;;;;;3.58;1.83;;;;;;;26.43;38.17;98615.88;5091723;28;20024;-46
2022/08/03 05:14:30;;;;;;;5.15;1.52;;;;;;;26.74;37.23;98612.44;5092136;28;20071;-46
2022/08/03 05:16:56;;;;;;;7.07;1.52;;;;;;;27.01;36.94;98619.56;5095989;28;20054;-48
2022/08/03 05:19:21;;;;;;;13.93;2.15;;;;;;;27.04;36.76;98618.91;5077725;28;20489;-48
2022/08/03 05:21:47;;;;;;;15.20;2.92;;;;;;;26.77;37.30;98619.91;5095900;28;20066;-47
2022/08/03 05:24:12;;;;;;;12.75;2.60;;;;;;;26.77;37.62;98620.69;5095876;28;20028;-48
2022/08/03 05:26:38;;;;;;;12.77;2.10;;;;;;;27.10;37.13;98628.44;5077525;28;20024;-48
2022/08/03 05:29:07;;;;;;;6.25;1.98;;;;;;;27.52;35.84;98633.53;5095582;28;20054;-48
2022/08/03 05:31:32;;;;;;;2.50;1.58;;;;;;;27.96;34.69;98631.72;5095650;28;20497;-48
2022/08/03 05:33:58;;;;;;;4.75;1.60;;;;;;;28.38;34.10;98635.53;5095697;28;20066;-48
2022/08/03 05:36:24;;;;;;;4.50;1.70;;;;;;;28.74;33.20;98625.50;5077367;28;20107;-48
2022/08/03 05:38:49;;;;;;;8.27;1.98;;;;;;;29.23;32.14;98623.25;5095620;28;20019;-47
2022/08/03 05:41:15;;;;;;;9.52;1.77;;;;;;;29.71;31.41;98623.94;5095516;28;20031;-48
2022/08/03 05:43:41;;;;;;;3.72;1.63;;;;;;;30.07;30.86;98618.75;5095515;28;20582;-46
2022/08/03 05:46:06;;;;;;;5.20;1.63;;;;;;;30.49;30.11;98630.69;5095463;28;20016;-49
2022/08/03 05:48:32;;;;;;;5.97;1.63;;;;;;;30.79;29.83;98634.03;5077169;28;20405;-47
2022/08/03 05:50:58;;;;;;;11.45;2.60;;;;;;;31.20;29.07;98626.88;5077004;28;20020;-48
2022/08/03 05:53:23;;;;;;;6.38;1.85;;;;;;;31.72;28.53;98630.81;5095328;28;20460;-48
2022/08/03 05:55:49;;;;;;;11.00;1.95;;;;;;;32.15;27.95;98621.19;5095433;28;20066;-48
2022/08/03 05:58:14;;;;;;;5.03;1.45;;;;;;;32.57;27.13;98629.72;5095252;28;20039;-48
2022/08/03 06:00:40;;;;;;;11.60;1.98;;;;;;;32.90;27.21;98633.28;5095103;28;20020;-49
2022/08/03 06:03:06;;;;;;;7.78;1.73;;;;;;;32.97;27.07;98636.97;5095131;28;20481;-47
2022/08/03 06:05:35;;;;;;;4.65;1.90;;;;;;;33.35;26.17;98638.28;5095099;28;20027;-48
2022/08/03 06:08:02;;;;;;;5.75;1.70;;;;;;;33.69;25.46;98635.19;5095072;28;20024;-48
2022/08/03 06:10:27;;;;;;;7.18;1.60;;;;;;;33.79;25.90;98629.94;5095036;28;20043;-48
2022/08/03 06:12:53;;;;;;;6.63;1.88;;;;;;;34.13;25.68;98626.72;5076635;28;20501;-48
2022/08/03 06:15:19;;;;;;;5.90;1.52;;;;;;;34.50;24.74;98629.03;5076675;28;20024;-48
2022/08/03 06:17:47;;;;;;;3.70;1.63;;;;;;;34.87;24.35;98631.25;5094840;28;20450;-48
2022/08/03 06:20:14;;;;;;;4.40;1.40;;;;;;;35.30;23.71;98631.97;5076616;28;20020;-48
2022/08/03 06:22:40;;;;;;;6.97;1.70;;;;;;;35.51;23.41;98629.53;5094767;28;20035;-48
2022/08/03 06:25:06;;;;;;;10.45;2.10;;;;;;;35.80;23.22;98629.97;5094636;28;20028;-48
2022/08/03 06:27:32;;;;;;;12.93;2.20;;;;;;;36.12;23.09;98635.00;5094066;28;20051;-49
2022/08/03 06:29:57;;;;;;;6.85;1.50;;;;;;;36.27;22.93;98630.53;5076377;28;20028;-49
2022/08/03 06:32:23;;;;;;;8.43;1.95;;;;;;;36.64;22.43;98637.97;5076259;28;20440;-48
2022/08/03 06:34:48;;;;;;;12.80;1.80;;;;;;;37.13;22.15;98637.63;5094483;28;20032;-49
2022/08/03 06:37:14;;;;;;;7.32;1.67;;;;;;;37.46;21.37;98640.59;5076234;28;20081;-48
2022/08/03 06:39:40;;;;;;;3.83;1.38;;;;;;;37.82;21.02;98640.81;5094470;28;20069;-49
2022/08/03 06:42:05;;;;;;;8.30;1.65;;;;;;;38.11;20.35;98637.03;5094353;28;20462;-48
2022/08/03 06:44:31;;;;;;;8.45;1.77;;;;;;;38.20;20.69;98633.94;5076168;28;20407;-49
2022/08/03 06:46:57;;;;;;;16.95;2.45;;;;;;;38.41;20.71;98635.94;5094280;28;20095;-49
2022/08/03 06:49:23;;;;;;;3.47;1.50;;;;;;;38.83;20.02;98645.41;5094257;28;20110;-50
2022/08/03 06:51:52;;;;;;;8.55;1.60;;;;;;;39.42;19.40;98638.75;5094148;28;20413;-49
2022/08/03 06:54:21;;;;;;;11.38;2.95;;;;;;;39.86;18.90;98632.75;5094200;28;20019;-49
2022/08/03 06:56:47;;;;;;;3.22;1.50;;;;;;;40.12;18.66;98638.91;5094145;28;20095;-49
2022/08/03 06:59:12;;;;;;;5.63;1.67;;;;;;;40.28;18.18;98647.47;5075912;28;20028;-49
2022/08/03 07:01:38;;;;;;;6.10;2.10;;;;;;;40.72;18.14;98643.28;5094035;28;20078;-50
2022/08/03 07:04:04;;;;;;;11.60;1.80;;;;;;;41.18;17.48;98649.66;5075820;28;20028;-50
2022/08/03 07:06:30;;;;;;;7.30;1.88;;;;;;;41.21;17.18;98642.53;5075704;28;20020;-49
2022/08/03 07:08:58;;;;;;;10.05;2.97;;;;;;;41.18;18.00;98648.88;5075995;28;20028;-49
2022/08/03 07:11:24;;;;;;;14.80;2.33;;;;;;;41.11;18.76;98647.72;5093704;28;20497;-49
2022/08/03 07:13:50;;;;;;;17.95;2.55;;;;;;;40.46;19.76;98650.16;5093815;28;20027;-48
2022/08/03 07:16:16;;;;;;;11.93;2.35;;;;;;;39.77;20.44;98648.88;5093739;28;20031;-50
2022/08/03 07:18:41;;;;;;;18.05;2.30;;;;;;;39.36;21.03;98643.84;5093699;28;20047;-48
2022/08/03 07:21:09;;;;;;;23.83;3.10;;;;;;;39.44;20.85;98650.94;5075525;28;20049;-49
2022/08/03 07:23:35;;;;;;;7.78;1.90;;;;;;;39.98;20.36;98653.53;5093623;28;20047;-49
2022/08/03 07:26:01;;;;;;;31.63;3.25;;;;;;;40.52;19.75;98650.50;5075587;28;20489;-49
2022/08/03 07:28:27;;;;;;;33.10;4.07;;;;;;;40.85;19.34;98656.59;5075063;28;20055;-50
2022/08/03 07:30:52;;;;;;;24.48;2.45;;;;;;;40.53;19.56;98657.59;5075181;28;20120;-50
2022/08/03 07:33:18;;;;;;;20.92;2.38;;;;;;;40.07;20.06;98651.13;5093404;28;20442;-49
2022/08/03 07:35:44;;;;;;;17.52;2.33;;;;;;;39.90;20.15;98650.00;5093284;28;20501;-50
2022/08/03 07:38:09;;;;;;;17.38;2.25;;;;;;;39.77;20.47;98657.13;5092571;28;20027;-50
2022/08/03 07:40:35;;;;;;;25.27;2.28;;;;;;;40.18;20.15;98655.78;5093124;28;20093;-52
2022/08/03 07:43:02;;;;;;;64.00;6.25;;;;;;;40.72;19.58;98659.03;5074993;28;20024;-51
2022/08/03 07:45:29;;;;;;;17.70;2.50;;;;;;;41.17;19.11;98658.28;5093167;28;20012;-51
2022/08/03 07:47:55;;;;;;;26.27;2.78;;;;;;;41.65;18.65;98660.22;5074888;28;20028;-51
2022/08/03 07:50:21;;;;;;;23.10;3.17;;;;;;;41.88;18.54;98654.84;5074811;28;20031;-51
2022/08/03 07:52:48;;;;;;;25.85;3.30;;;;;;;42.29;18.28;98653.91;5074743;28;20027;-50
2022/08/03 07:55:14;;;;;;;8.30;1.48;;;;;;;42.04;18.01;98656.25;5092977;28;20028;-51
2022/08/03 07:57:40;;;;;;;31.25;3.80;;;;;;;41.80;18.32;98656.13;5092958;28;20028;-51
2022/08/03 08:00:13;;;;;;;31.70;3.88;;;;;;;41.80;18.47;98650.59;5074647;28;20036;-50
2022/08/03 08:02:39;;;;;;;29.20;3.35;;;;;;;42.20;18.17;98644.59;5092953;28;20032;-52
2022/08/03 08:05:05;;;;;;;10.77;2.30;;;;;;;42.04;17.76;98647.97;5074584;28;20034;-51
2022/08/03 08:07:31;;;;;;;11.38;1.75;;;;;;;41.42;18.43;98638.81;5074564;28;20028;-52
2022/08/03 08:09:56;;;;;;;16.70;2.35;;;;;;;41.30;18.74;98640.09;5074481;28;20020;-52
2022/08/03 08:12:22;;;;;;;26.02;2.65;;;;;;;41.26;18.57;98636.59;5074338;28;20020;-51
2022/08/03 08:14:48;;;;;;;21.88;2.85;;;;;;;41.44;18.33;98639.16;5092848;28;20385;-51
2022/08/03 08:17:14;;;;;;;11.93;1.73;;;;;;;41.51;17.95;98637.13;5092480;28;20020;-51
2022/08/03 08:19:39;;;;;;;9.77;1.80;;;;;;;41.56;18.05;98640.63;5092711;28;20024;-52
2022/08/03 08:22:08;;;;;;;11.05;1.70;;;;;;;41.99;17.49;98638.13;5092466;28;20486;-52
2022/08/03 08:24:34;;;;;;;5.97;1.55;;;;;;;42.43;16.46;98641.91;5074263;28;20386;-51
2022/08/03 08:27:02;;;;;;;7.50;1.45;;;;;;;42.74;16.14;98643.81;5092157;28;20085;-50
2022/08/03 08:29:28;;;;;;;19.48;2.72;;;;;;;43.52;15.79;98643.69;5092442;28;20443;-52
2022/08/03 08:31:53;;;;;;;29.35;3.58;;;;;;;44.25;16.17;98639.06;5092182;28;20020;-49
2022/08/03 08:34:19;;;;;;;9.38;1.38;;;;;;;44.25;14.76;98639.84;5092293;28;20047;-49
2022/08/03 08:36:44;;;;;;;56.15;4.85;;;;;;;44.96;14.74;98633.84;5074050;28;20142;-50
2022/08/03 08:39:11;;;;;;;14.98;2.70;;;;;;;45.34;14.43;98641.59;5092241;28;20020;-50
2022/08/03 08:41:36;;;;;;;11.63;2.05;;;;;;;45.14;14.44;98632.59;5092071;28;20020;-50
2022/08/03 08:44:03;;;;;;;9.15;1.35;;;;;;;45.51;14.14;98639.53;5092131;28;20031;-50
2022/08/03 08:46:32;;;;;;;28.85;4.85;;;;;;;45.50;14.25;98639.97;5092105;28;20077;-49
2022/08/03 08:48:59;;;;;;;29.98;3.75;;;;;;;45.70;14.24;98639.84;5092084;28;20055;-50
2022/08/03 08:51:32;;;;;;;12.18;1.27;;;;;;;45.96;13.38;98626.78;5091967;28;20018;-50
2022/08/03 08:54:01;;;;;;;17.10;2.17;;;;;;;45.99;14.04;98631.47;5091970;28;20073;-50
2022/08/03 08:56:28;;;;;;;7.30;1.50;;;;;;;45.79;13.86;98631.66;5091894;28;20024;-49
2022/08/03 08:58:58;;;;;;;16.70;2.03;;;;;;;46.70;13.61;98633.25;5091968;28;20062;-50
2022/08/03 09:01:24;;;;;;;6.63;1.40;;;;;;;46.99;12.72;98633.09;5073820;28;20039;-51
2022/08/03 09:03:50;;;;;;;8.57;1.40;;;;;;;47.69;12.48;98625.47;5073772;28;20028;-50
2022/08/03 09:06:16;;;;;;;5.03;1.35;;;;;;;48.34;11.79;98621.03;5092138;28;20034;-51
2022/08/03 09:08:42;;;;;;;10.05;1.60;;;;;;;48.06;11.88;98620.13;5073733;28;20035;-51
2022/08/03 09:11:08;;;;;;;17.67;1.90;;;;;;;48.06;11.99;98614.56;5073610;28;20102;-51
2022/08/03 09:13:34;;;;;;;7.15;1.38;;;;;;;48.01;12.16;98621.50;5073656;28;20036;-51
2022/08/03 09:16:10;;;;;;;7.13;1.70;;;;;;;47.75;12.47;98611.75;5091830;28;20045;-52
2022/08/03 09:18:37;;;;;;;19.50;2.25;;;;;;;47.18;12.29;98615.38;5091764;28;20493;-52
2022/08/03 09:21:25;;;;;;;18.08;2.63;;;;;;;46.82;13.12;98622.13;5073585;28;20398;-51
2022/08/03 09:23:54;;;;;;;8.63;1.52;;;;;;;47.30;12.10;98621.34;5091806;28;20031;-53
2022/08/03 09:26:28;;;;;;;9.88;1.80;;;;;;;48.14;12.09;98610.25;5091732;28;20062;-53
2022/08/03 09:28:56;;;;;;;9.85;1.50;;;;;;;48.39;11.97;98612.06;5091484;28;20131;-51
2022/08/03 09:31:33;;;;;;;10.48;1.58;;;;;;;48.73;11.19;98617.88;5091564;28;20389;-52
2022/08/03 09:34:07;;;;;;;22.25;2.67;;;;;;;48.87;11.31;98619.28;5091581;28;20442;-52
2022/08/03 09:36:44;;;;;;;19.58;2.42;;;;;;;48.95;11.47;98609.38;5073397;28;20028;-52
2022/08/03 09:39:12;;;;;;;8.05;1.75;;;;;;;48.68;11.25;98610.94;5091680;28;20074;-52
2022/08/03 09:41:47;;;;;;;7.90;1.27;;;;;;;48.40;11.65;98610.84;5073386;28;20028;-52
2022/08/03 09:44:13;;;;;;;5.18;1.30;;;;;;;48.73;11.51;98609.53;5091609;28;20398;-51
2022/08/03 09:46:50;;;;;;;10.98;1.63;;;;;;;49.34;10.92;98607.66;5073353;28;20108;-50
2022/08/03 09:49:16;;;;;;;8.30;1.55;;;;;;;49.75;10.71;98601.91;5091477;28;20036;-51
2022/08/03 09:51:43;;;;;;;11.27;2.17;;;;;;;49.68;11.07;98597.41;5073238;28;20028;-50
2022/08/03 09:54:09;;;;;;;10.20;1.50;;;;;;;49.33;10.98;98600.56;5091469;28;20103;-50
2022/08/03 09:56:38;;;;;;;6.55;1.50;;;;;;;49.18;10.77;98599.66;5091412;28;20453;-51
2022/08/03 09:59:04;;;;;;;64.75;7.38;;;;;;;48.93;10.70;98607.06;5073219;28;20024;-52
2022/08/03 10:01:34;;;;;;;12.45;2.17;;;;;;;48.79;10.81;98608.44;5074999;28;20038;-51
2022/08/03 10:04:03;;;;;;;8.18;1.58;;;;;;;48.75;10.74;98601.47;5095161;28;20111;-50
2022/08/03 10:06:29;;;;;;;3.97;1.23;;;;;;;48.54;10.78;98594.75;5095065;28;20028;-50
2022/08/03 10:09:13;;;;;;;6.90;1.40;;;;;;;49.18;10.59;98585.69;5076822;28;20528;-51
2022/08/03 10:11:40;;;;;;;15.35;1.88;;;;;;;49.66;9.81;98594.31;5076759;28;20058;-51
2022/08/03 10:14:07;;;;;;;11.68;1.70;;;;;;;49.59;9.93;98589.06;5094985;28;20102;-50
2022/08/03 10:16:38;;;;;;;3.67;1.13;;;;;;;49.63;9.60;98592.47;5094987;28;20056;-51
2022/08/03 10:19:06;;;;;;;3.78;1.02;;;;;;;49.75;10.03;98588.75;5076763;28;20157;-51
2022/08/03 10:21:39;;;;;;;14.13;2.70;;;;;;;49.76;10.45;98581.91;5094813;28;20028;-52
2022/08/03 10:24:09;;;;;;;9.38;2.42;;;;;;;49.45;10.25;98576.56;5094868;28;20032;-53
2022/08/03 10:26:39;;;;;;;4.53;1.10;;;;;;;49.29;10.30;98577.66;5094979;28;20024;-52
2022/08/03 10:29:10;;;;;;;2.38;1.10;;;;;;;49.44;9.84;98577.03;5094518;28;20089;-53
2022/08/03 10:31:43;;;;;;;6.50;1.40;;;;;;;49.32;10.60;98570.34;5094592;28;20477;-50
2022/08/03 10:34:23;;;;;;;7.70;1.20;;;;;;;49.01;10.13;98562.19;5076459;28;20055;-51
2022/08/03 10:36:55;;;;;;;7.35;1.13;;;;;;;48.78;10.63;98564.31;5094607;28;20517;-50
2022/08/03 10:39:23;;;;;;;5.00;1.63;;;;;;;48.95;10.73;98559.22;5094858;28;20036;-50
2022/08/03 10:41:55;;;;;;;5.07;1.20;;;;;;;49.23;10.71;98562.03;5094448;28;20028;-51
2022/08/03 10:44:24;;;;;;;6.43;1.30;;;;;;;49.18;10.14;98558.63;5094608;28;20439;-52
2022/08/03 10:46:52;;;;;;;6.10;1.40;;;;;;;48.55;10.91;98566.44;5094361;28;20016;-52
2022/08/03 10:49:19;;;;;;;8.52;1.23;;;;;;;48.63;10.54;98558.56;5076473;28;20028;-51
2022/08/03 10:51:47;;;;;;;8.65;1.30;;;;;;;49.10;10.28;98549.00;5076023;28;20020;-50
2022/08/03 10:57:33;;;;;;;10.23;1.60;;;;;;;49.72;9.71;98550.59;5094237;28;20501;-50
2022/08/03 10:57:42;;;;;;;43.67;4.57;;;;;;;50.23;9.94;98551.78;5079019;28;20050;-51
2022/08/03 11:00:09;;;;;;;8.55;1.58;;;;;;;49.67;9.93;98545.66;5094089;28;20035;-51
2022/08/03 11:03:05;;;;;;;6.30;1.23;;;;;;;49.26;10.66;98544.34;5075903;28;20378;-52
2022/08/03 11:05:37;;;;;;;3.30;1.27;;;;;;;49.32;10.06;98548.03;5093972;28;20060;-52
2022/08/03 11:08:22;;;;;;;6.55;1.25;;;;;;;48.89;10.16;98533.22;5075898;28;20386;-51
2022/08/03 11:10:51;;;;;;;4.32;1.20;;;;;;;48.13;10.71;98541.91;5093832;28;20121;-52
2022/08/03 11:13:23;;;;;;;6.78;0.90;;;;;;;47.22;11.25;98537.44;5092587;28;20012;-51
2022/08/03 11:15:52;;;;;;;6.55;1.35;;;;;;;46.82;11.33;98527.69;5093765;28;20031;-52
2022/08/03 11:18:18;;;;;;;1.63;0.90;;;;;;;46.72;11.45;98537.16;5093779;28;20027;-51
2022/08/03 11:20:53;;;;;;;6.47;1.30;;;;;;;46.56;11.95;98532.53;5093933;28;20032;-50
2022/08/03 11:23:45;;;;;;;5.10;1.25;;;;;;;46.26;12.24;98519.25;5093624;28;20028;-49
2022/08/03 11:26:11;;;;;;;4.03;1.10;;;;;;;46.08;12.29;98528.16;5093638;28;20024;-50
2022/08/03 11:28:38;;;;;;;3.25;1.08;;;;;;;46.29;11.97;98518.38;5093226;28;20459;-52
2022/08/03 11:31:26;;;;;;;5.32;1.10;;;;;;;46.12;12.10;98521.28;5093345;28;20020;-50
2022/08/03 11:34:12;;;;;;;4.13;1.20;;;;;;;46.22;12.14;98511.06;5093426;28;20059;-50
2022/08/03 11:37:15;;;;;;;10.48;2.53;;;;;;;46.37;12.63;98508.59;5075211;28;20089;-50
2022/08/03 11:39:44;;;;;;;4.57;0.90;;;;;;;45.54;12.40;98499.25;5075151;28;20493;-50
2022/08/03 11:42:25;;;;;;;2.38;1.23;;;;;;;45.36;12.79;98499.78;5093285;28;20024;-50
2022/08/03 11:44:59;;;;;;;6.10;1.27;;;;;;;45.51;12.60;98497.41;5093258;28;20028;-49
2022/08/03 11:47:28;;;;;;;7.35;1.17;;;;;;;45.78;12.59;98491.44;5074869;28;20028;-50
2022/08/03 11:49:57;;;;;;;3.08;1.10;;;;;;;46.22;12.09;98486.06;5075278;28;20055;-51